Time;durP1;ratioP1;P1;durP2;ratioP2;P2;SDS_P1;SDS_P2;PMS_P1;PMS_P2;Temp;Humidity;BMP_temperature;BMP_pressure;BME280_temperature;BME280_humidity;BME280_pressure;Samples;Min_cycle;Max_cycle;Signal;HPM_P1;HPM_P2
2023/09/02 00:00:44;;;;;;;80.00;34.88;;;;;;;16.37;100.00;101518.53;4951816;28;20137;-78
2023/09/02 00:03:12;;;;;;;64.53;31.95;;;;;;;16.32;100.00;101521.41;4967004;28;20098;-77
2023/09/02 00:05:39;;;;;;;78.32;33.33;;;;;;;16.31;100.00;101517.00;4966900;28;20404;-78
2023/09/02 00:08:06;;;;;;;79.03;34.15;;;;;;;16.27;100.00;101515.38;4966375;28;20519;-78
2023/09/02 00:10:33;;;;;;;73.43;33.25;;;;;;;16.25;100.00;101514.59;4967028;28;20101;-77
2023/09/02 00:13:01;;;;;;;79.22;33.42;;;;;;;16.22;100.00;101512.94;4965892;28;20519;-76
2023/09/02 00:15:28;;;;;;;108.60;35.90;;;;;;;16.17;100.00;101509.63;4967903;28;20046;-79
2023/09/02 00:17:55;;;;;;;88.60;33.42;;;;;;;16.14;100.00;101509.75;4966699;28;20112;-78
2023/09/02 00:20:22;;;;;;;94.65;32.97;;;;;;;16.12;100.00;101519.56;4951281;28;20138;-78
2023/09/02 00:22:49;;;;;;;57.10;28.45;;;;;;;16.11;100.00;101515.19;4950671;28;20125;-78
2023/09/02 00:25:16;;;;;;;65.32;30.77;;;;;;;16.12;100.00;101511.59;4967762;28;20156;-78
2023/09/02 00:27:43;;;;;;;92.63;34.83;;;;;;;16.09;100.00;101509.94;4963032;28;20122;-77
2023/09/02 00:30:11;;;;;;;58.10;29.35;;;;;;;16.09;100.00;101504.63;4965699;28;20054;-76
2023/09/02 00:32:38;;;;;;;78.18;32.85;;;;;;;16.08;100.00;101504.66;4966086;28;20467;-76
2023/09/02 00:35:05;;;;;;;75.63;32.95;;;;;;;16.07;100.00;101513.59;4965097;28;20431;-76
2023/09/02 00:37:32;;;;;;;101.07;36.15;;;;;;;16.04;100.00;101513.72;4962334;28;20135;-76
2023/09/02 00:40:00;;;;;;;102.88;34.92;;;;;;;16.04;100.00;101524.38;4967282;28;20053;-76
2023/09/02 00:42:30;;;;;;;97.07;35.55;;;;;;;15.99;100.00;101522.75;4963861;28;20551;-76
2023/09/02 00:44:57;;;;;;;83.72;31.75;;;;;;;15.98;100.00;101525.50;4956938;28;20381;-76
2023/09/02 00:47:25;;;;;;;87.60;31.92;;;;;;;15.96;100.00;101541.53;4966612;28;20047;-76
2023/09/02 00:49:53;;;;;;;137.98;38.28;;;;;;;15.93;100.00;101530.13;4968210;28;20047;-75
2023/09/02 00:52:20;;;;;;;100.78;33.53;;;;;;;15.92;100.00;101536.41;4970439;28;20051;-75
2023/09/02 00:54:47;;;;;;;102.20;34.70;;;;;;;15.93;100.00;101535.44;4970601;28;20045;-76
2023/09/02 00:57:14;;;;;;;86.07;31.23;;;;;;;15.92;100.00;101531.06;4969096;28;20105;-75
2023/09/02 00:59:41;;;;;;;92.72;31.67;;;;;;;15.91;100.00;101529.34;4970729;28;20050;-75
2023/09/02 01:02:09;;;;;;;102.97;34.42;;;;;;;15.87;100.00;101523.28;4953031;28;20077;-75
2023/09/02 01:04:36;;;;;;;102.95;35.15;;;;;;;15.84;100.00;101526.06;4951792;28;20459;-75
2023/09/02 01:07:04;;;;;;;83.50;30.90;;;;;;;15.83;100.00;101525.16;4968931;28;20503;-75
2023/09/02 01:09:32;;;;;;;233.80;41.92;;;;;;;15.83;100.00;101516.34;4969130;28;20043;-74
2023/09/02 01:11:59;;;;;;;200.20;39.92;;;;;;;15.82;100.00;101528.75;4968941;28;20053;-74
2023/09/02 01:14:26;;;;;;;226.98;38.53;;;;;;;15.78;100.00;101516.53;4969820;28;20085;-74
2023/09/02 01:16:53;;;;;;;110.55;31.77;;;;;;;15.76;100.00;101514.88;4956126;28;20126;-74
2023/09/02 01:19:22;;;;;;;105.28;32.85;;;;;;;15.77;100.00;101522.75;4953893;28;20660;-75
2023/09/02 01:22:29;;;;;;;155.10;38.30;;;;;;;15.76;100.00;101518.38;4968095;28;20126;-74
2023/09/02 01:25:37;;;;;;;107.63;32.72;;;;;;;15.77;100.00;101521.91;4951414;28;20926;-74
2023/09/02 01:28:14;;;;;;;108.05;32.67;;;;;;;15.77;100.00;101520.09;4963926;28;20467;-74
2023/09/02 01:30:47;;;;;;;102.45;32.22;;;;;;;15.78;100.00;101528.94;4969455;28;20125;-74
2023/09/02 01:33:18;;;;;;;100.15;32.72;;;;;;;15.77;100.00;101530.75;4970235;28;20050;-76
2023/09/02 01:35:52;;;;;;;98.68;33.40;;;;;;;15.75;100.00;101524.63;4955115;28;20043;-76
2023/09/02 01:38:24;;;;;;;87.70;31.08;;;;;;;15.76;100.00;101536.97;4966879;28;20097;-76
2023/09/02 01:40:56;;;;;;;119.10;33.53;;;;;;;15.77;100.00;101540.53;4938672;28;20042;-74
2023/09/02 01:43:26;;;;;;;98.90;31.02;;;;;;;15.76;100.00;101544.09;4970004;28;20114;-75
2023/09/02 01:45:55;;;;;;;82.85;31.23;;;;;;;15.77;100.00;101546.69;4953613;28;20495;-75
2023/09/02 01:48:26;;;;;;;94.75;30.45;;;;;;;15.77;100.00;101538.72;4937831;28;20053;-75
2023/09/02 01:50:54;;;;;;;102.95;32.75;;;;;;;15.79;100.00;101535.97;4968663;28;20046;-76
2023/09/02 01:53:21;;;;;;;121.95;33.28;;;;;;;15.79;100.00;101538.63;4970198;28;20043;-77
2023/09/02 01:55:49;;;;;;;83.82;31.23;;;;;;;15.79;100.00;101536.88;4970166;28;20054;-76
2023/09/02 01:58:18;;;;;;;126.70;34.08;;;;;;;15.81;100.00;101540.34;4951841;28;20070;-76
2023/09/02 02:00:45;;;;;;;116.82;35.03;;;;;;;15.84;100.00;101545.53;4970141;28;20043;-76
2023/09/02 02:03:23;;;;;;;98.60;33.08;;;;;;;15.87;100.00;101555.19;4967727;28;20054;-77
2023/09/02 02:05:53;;;;;;;206.88;41.25;;;;;;;15.89;100.00;101553.31;4972650;28;20043;-77
2023/09/02 02:08:37;;;;;;;91.85;32.13;;;;;;;15.90;100.00;101552.38;4968040;28;20158;-77
2023/09/02 02:11:06;;;;;;;126.60;35.90;;;;;;;15.90;100.00;101549.72;4955394;28;20058;-78
2023/09/02 02:13:33;;;;;;;86.85;31.25;;;;;;;15.91;100.00;101558.59;4962933;28;20126;-76
2023/09/02 02:16:01;;;;;;;193.80;39.58;;;;;;;15.90;100.00;101564.84;4966475;28;20057;-76
2023/09/02 02:18:28;;;;;;;119.72;33.75;;;;;;;15.89;100.00;101563.94;4967127;28;20047;-77
2023/09/02 02:21:02;;;;;;;117.07;33.10;;;;;;;15.88;100.00;101564.03;4953002;28;20062;-77
2023/09/02 02:23:31;;;;;;;128.95;34.50;;;;;;;15.85;100.00;101573.00;4963592;28;20043;-77
2023/09/02 02:26:00;;;;;;;118.00;34.10;;;;;;;15.81;100.00;101569.56;4970329;28;20046;-76
2023/09/02 02:28:28;;;;;;;110.43;32.83;;;;;;;15.80;100.00;101566.97;4966411;28;20043;-76
2023/09/02 02:30:57;;;;;;;97.97;31.40;;;;;;;15.79;100.00;101571.44;4953571;28;20058;-76
2023/09/02 02:33:25;;;;;;;96.75;29.77;;;;;;;15.79;100.00;101565.22;4967866;28;20047;-75
2023/09/02 02:35:53;;;;;;;117.13;32.60;;;;;;;15.75;100.00;101574.28;4967877;28;20086;-76
2023/09/02 02:38:20;;;;;;;110.90;31.98;;;;;;;15.73;100.00;101574.31;4965493;28;20055;-76
2023/09/02 02:40:47;;;;;;;84.45;29.65;;;;;;;15.69;100.00;101575.38;4962990;28;20419;-76
2023/09/02 02:43:14;;;;;;;124.35;33.97;;;;;;;15.66;100.00;101578.16;4967956;28;20123;-77
2023/09/02 02:45:42;;;;;;;161.30;37.35;;;;;;;15.64;100.00;101577.34;4960902;28;20059;-77
2023/09/02 02:48:15;;;;;;;98.43;30.02;;;;;;;15.62;100.00;101576.53;4968611;28;20074;-77
2023/09/02 02:50:42;;;;;;;109.85;32.28;;;;;;;15.58;100.00;101567.81;4968165;28;20050;-77
2023/09/02 02:53:10;;;;;;;100.30;32.17;;;;;;;15.58;100.00;101573.13;4966532;28;20047;-76
2023/09/02 02:55:37;;;;;;;110.60;31.13;;;;;;;15.58;100.00;101581.09;4965511;28;20055;-76
2023/09/02 02:58:05;;;;;;;90.32;30.83;;;;;;;15.59;100.00;101580.19;4951147;28;20133;-76
2023/09/02 03:00:32;;;;;;;115.43;33.88;;;;;;;15.60;100.00;101573.09;4965378;28;20039;-75
2023/09/02 03:03:02;;;;;;;65.05;28.60;;;;;;;15.61;100.00;101578.34;4967211;28;20558;-75
2023/09/02 03:05:39;;;;;;;143.88;34.83;;;;;;;15.59;100.00;101577.53;4956371;28;20459;-75
2023/09/02 03:08:09;;;;;;;110.00;32.97;;;;;;;15.59;100.00;101584.66;4961005;28;20078;-75
2023/09/02 03:10:37;;;;;;;86.50;30.50;;;;;;;15.58;100.00;101580.25;4968827;28;20034;-75
2023/09/02 03:13:05;;;;;;;138.70;34.17;;;;;;;15.58;100.00;101581.09;4966901;28;20042;-75
2023/09/02 03:15:34;;;;;;;99.90;30.25;;;;;;;15.57;100.00;101579.38;4970108;28;20039;-75
2023/09/02 03:18:02;;;;;;;104.97;32.17;;;;;;;15.58;100.00;101577.59;4935596;28;20043;-75
2023/09/02 03:20:32;;;;;;;98.05;32.15;;;;;;;15.57;100.00;101566.09;4952239;28;20491;-75
2023/09/02 03:23:04;;;;;;;89.72;30.80;;;;;;;15.56;100.00;101571.47;4966751;28;20479;-75
2023/09/02 03:25:32;;;;;;;125.57;34.50;;;;;;;15.53;100.00;101569.81;4950665;28;20098;-75
2023/09/02 03:28:00;;;;;;;105.90;32.47;;;;;;;15.50;100.00;101568.16;4967873;28;20097;-74
2023/09/02 03:30:28;;;;;;;125.93;33.63;;;;;;;15.46;100.00;101558.56;4968055;28;20136;-75
2023/09/02 03:32:55;;;;;;;83.43;30.50;;;;;;;15.44;100.00;101562.19;4967152;28;20061;-74
2023/09/02 03:35:22;;;;;;;101.95;31.85;;;;;;;15.41;100.00;101568.50;4970654;28;20043;-75
2023/09/02 03:37:49;;;;;;;507.52;53.60;;;;;;;15.37;100.00;101570.38;4966171;28;20042;-75
2023/09/02 03:40:18;;;;;;;349.92;46.63;;;;;;;15.35;100.00;101576.69;4950187;28;20511;-76
2023/09/02 03:42:48;;;;;;;479.95;60.60;;;;;;;15.31;100.00;101573.31;4935976;28;20038;-76
2023/09/02 03:45:15;;;;;;;115.50;35.92;;;;;;;15.27;100.00;101577.00;4968644;28;20043;-76
2023/09/02 03:47:42;;;;;;;87.80;31.33;;;;;;;15.28;100.00;101577.88;4950165;28;20138;-76
2023/09/02 03:50:10;;;;;;;76.28;31.70;;;;;;;15.27;100.00;101584.09;4950429;28;20423;-76
2023/09/02 03:52:38;;;;;;;94.57;34.10;;;;;;;15.25;100.00;101578.88;4951140;28;20045;-76
2023/09/02 03:55:05;;;;;;;83.03;33.03;;;;;;;15.25;100.00;101585.94;4950650;28;20061;-76
2023/09/02 03:57:34;;;;;;;86.70;31.55;;;;;;;15.26;100.00;101585.03;4965678;28;20043;-76
2023/09/02 04:00:01;;;;;;;83.78;31.23;;;;;;;15.27;100.00;101582.28;4949858;28;20133;-76
2023/09/02 04:02:28;;;;;;;82.32;31.05;;;;;;;15.27;100.00;101581.44;4969028;28;20615;-76
2023/09/02 04:04:56;;;;;;;75.43;31.10;;;;;;;15.28;100.00;101578.72;4963645;28;20067;-76
2023/09/02 04:07:23;;;;;;;89.57;33.22;;;;;;;15.28;100.00;101581.38;4963881;28;20082;-75
2023/09/02 04:09:50;;;;;;;70.25;30.67;;;;;;;15.31;100.00;101591.91;4965701;28;20042;-75
2023/09/02 04:12:17;;;;;;;68.47;29.52;;;;;;;15.33;100.00;101584.75;4934710;28;20050;-75
2023/09/02 04:14:44;;;;;;;89.00;30.00;;;;;;;15.38;100.00;101590.72;4966554;28;20039;-75
2023/09/02 04:17:12;;;;;;;100.55;34.22;;;;;;;15.41;100.00;101595.06;4966206;28;20514;-75
2023/09/02 04:19:40;;;;;;;73.28;30.40;;;;;;;15.42;100.00;101588.81;4965771;28;20078;-75
2023/09/02 04:22:07;;;;;;;90.97;32.00;;;;;;;15.42;100.00;101590.63;4964855;28;20495;-76
2023/09/02 04:24:34;;;;;;;83.13;30.98;;;;;;;15.43;100.00;101609.16;4966926;28;20089;-76
2023/09/02 04:27:01;;;;;;;79.20;30.92;;;;;;;15.44;100.00;101607.38;4966812;28;20559;-76
2023/09/02 04:29:28;;;;;;;81.03;31.52;;;;;;;15.44;100.00;101607.38;4967501;28;20545;-76
2023/09/02 04:31:56;;;;;;;54.75;27.48;;;;;;;15.45;100.00;101614.41;4967821;28;20051;-76
2023/09/02 04:34:26;;;;;;;73.63;28.58;;;;;;;15.46;100.00;101608.19;4969708;28;20059;-77
2023/09/02 04:36:53;;;;;;;50.85;24.70;;;;;;;15.45;100.00;101612.63;4968448;28;20039;-77
2023/09/02 04:39:20;;;;;;;57.38;24.92;;;;;;;15.45;100.00;101611.75;4968216;28;20586;-76
2023/09/02 04:41:49;;;;;;;88.80;28.67;;;;;;;15.43;100.00;101614.47;4967947;28;20050;-76
2023/09/02 04:44:20;;;;;;;91.50;31.10;;;;;;;15.41;100.00;101616.34;4966254;28;20043;-76
2023/09/02 04:46:50;;;;;;;59.53;25.80;;;;;;;15.40;100.00;101619.03;4966134;28;20483;-74
2023/09/02 04:49:20;;;;;;;56.13;26.25;;;;;;;15.38;100.00;101624.41;4953887;28;20055;-76
2023/09/02 04:51:48;;;;;;;64.85;26.88;;;;;;;15.42;100.00;101622.50;4964806;28;20503;-75
2023/09/02 04:54:18;;;;;;;79.10;28.40;;;;;;;15.44;100.00;101628.63;4957791;28;20182;-72
2023/09/02 04:56:45;;;;;;;74.47;29.63;;;;;;;15.45;100.00;101627.69;4958053;28;20459;-77
2023/09/02 04:59:12;;;;;;;57.55;28.77;;;;;;;15.47;100.00;101629.38;4957056;28;20101;-76
2023/09/02 05:01:39;;;;;;;38.47;20.80;;;;;;;15.47;100.00;101631.16;4966260;28;20047;-76
2023/09/02 05:04:06;;;;;;;57.47;26.75;;;;;;;15.50;100.00;101631.03;4964830;28;20047;-75
2023/09/02 05:06:36;;;;;;;58.45;26.88;;;;;;;15.50;100.00;101631.91;4938548;28;20528;-74
2023/09/02 05:09:05;;;;;;;59.20;27.30;;;;;;;15.50;100.00;101631.03;4954462;28;20042;-76
2023/09/02 05:11:33;;;;;;;51.17;25.55;;;;;;;15.50;100.00;101641.66;4971874;28;20030;-76
2023/09/02 05:14:00;;;;;;;82.15;30.83;;;;;;;15.50;100.00;101634.56;4964320;28;20050;-75
2023/09/02 05:16:27;;;;;;;58.47;26.73;;;;;;;15.50;100.00;101629.25;4965113;28;20038;-75
2023/09/02 05:18:54;;;;;;;50.42;26.38;;;;;;;15.52;100.00;101638.00;4967204;28;20046;-75
2023/09/02 05:21:21;;;;;;;58.42;27.60;;;;;;;15.58;100.00;101639.56;4955083;28;20083;-75
2023/09/02 05:23:48;;;;;;;76.30;30.30;;;;;;;15.62;100.00;101638.53;4948176;28;20097;-76
2023/09/02 05:26:15;;;;;;;77.88;32.70;;;;;;;15.67;100.00;101641.88;4959883;28;20077;-75
2023/09/02 05:28:43;;;;;;;69.72;31.30;;;;;;;15.74;100.00;101644.31;4961694;28;20762;-76
2023/09/02 05:31:10;;;;;;;91.25;33.47;;;;;;;15.77;100.00;101644.19;4963199;28;20047;-76
2023/09/02 05:33:37;;;;;;;74.50;31.52;;;;;;;15.82;100.00;101642.22;4963383;28;20121;-76
2023/09/02 05:36:04;;;;;;;66.65;27.70;;;;;;;15.88;100.00;101649.09;4965266;28;20046;-76
2023/09/02 05:38:31;;;;;;;81.28;31.75;;;;;;;15.89;100.00;101648.19;4970477;28;20066;-76
2023/09/02 05:40:58;;;;;;;89.30;32.30;;;;;;;15.89;100.00;101662.31;4966077;28;20101;-73
2023/09/02 05:43:26;;;;;;;41.42;24.08;;;;;;;15.90;100.00;101660.56;4950654;28;20062;-75
2023/09/02 05:45:53;;;;;;;65.05;31.52;;;;;;;15.92;100.00;101659.56;4965580;28;20054;-75
2023/09/02 05:48:20;;;;;;;122.38;39.13;;;;;;;15.95;100.00;101671.84;4966553;28;20063;-76
2023/09/02 05:50:47;;;;;;;156.73;39.08;;;;;;;15.97;100.00;101670.84;4969114;28;20507;-74
2023/09/02 05:53:14;;;;;;;91.20;31.95;;;;;;;16.00;100.00;101677.88;4970037;28;20058;-74
2023/09/02 05:55:41;;;;;;;208.10;43.92;;;;;;;16.02;100.00;101678.69;4966606;28;20418;-74
2023/09/02 05:58:08;;;;;;;161.40;42.05;;;;;;;16.06;100.00;101682.09;4965556;28;20038;-75
2023/09/02 06:00:36;;;;;;;87.03;33.35;;;;;;;16.07;100.00;101681.16;4971817;28;20043;-76
2023/09/02 06:03:03;;;;;;;134.13;38.60;;;;;;;16.10;100.00;101691.66;4968942;28;20050;-75
2023/09/02 06:05:30;;;;;;;89.53;33.35;;;;;;;16.13;100.00;101680.91;4950668;28;20085;-75
2023/09/02 06:08:00;;;;;;;81.43;30.27;;;;;;;16.18;100.00;101683.38;4965540;28;20101;-75
2023/09/02 06:10:27;;;;;;;70.60;31.73;;;;;;;16.19;100.00;101683.28;4968086;28;20054;-76
2023/09/02 06:12:54;;;;;;;64.80;29.65;;;;;;;16.21;100.00;101685.91;4963109;28;20047;-72
2023/09/02 06:15:21;;;;;;;69.88;30.65;;;;;;;16.26;100.00;101687.47;4962300;28;20134;-72
2023/09/02 06:17:48;;;;;;;69.68;29.17;;;;;;;16.32;100.00;101696.09;4965018;28;21548;-72
2023/09/02 06:20:16;;;;;;;60.38;29.00;;;;;;;16.38;100.00;101691.41;4967469;28;20594;-72
2023/09/02 06:22:43;;;;;;;72.13;31.70;;;;;;;16.44;100.00;101693.78;4961601;28;20074;-72
2023/09/02 06:25:10;;;;;;;70.38;31.02;;;;;;;16.48;100.00;101699.00;4949066;28;20519;-73
2023/09/02 06:27:38;;;;;;;44.30;24.90;;;;;;;16.53;100.00;101705.00;4968755;28;20095;-73
2023/09/02 06:30:05;;;;;;;47.05;26.20;;;;;;;16.58;100.00;101709.19;4948884;28;20118;-72
2023/09/02 06:32:33;;;;;;;48.75;26.73;;;;;;;16.63;100.00;101713.47;4962637;28;20063;-72
2023/09/02 06:35:00;;;;;;;49.17;26.77;;;;;;;16.66;100.00;101706.22;4962057;28;20047;-73
2023/09/02 06:37:28;;;;;;;53.42;27.50;;;;;;;16.69;100.00;101710.53;4949942;28;20043;-72
2023/09/02 06:39:56;;;;;;;40.83;24.15;;;;;;;16.71;100.00;101717.53;4964677;28;20074;-73
2023/09/02 06:42:26;;;;;;;43.47;24.30;;;;;;;16.77;100.00;101717.28;4967776;28;20468;-72
2023/09/02 06:44:54;;;;;;;46.47;25.90;;;;;;;16.83;100.00;101716.16;4968378;28;20474;-72
2023/09/02 06:47:21;;;;;;;46.97;25.90;;;;;;;16.87;100.00;101709.78;4964890;28;20411;-72
2023/09/02 06:49:48;;;;;;;37.78;24.27;;;;;;;16.90;100.00;101719.41;4953404;28;20054;-73
2023/09/02 06:52:15;;;;;;;35.10;22.35;;;;;;;16.95;100.00;101725.44;4965516;28;20089;-72
2023/09/02 06:54:42;;;;;;;46.08;25.17;;;;;;;17.00;100.00;101722.56;4936932;28;20665;-72
2023/09/02 06:57:09;;;;;;;39.67;24.17;;;;;;;17.09;100.00;101722.19;4968669;28;20046;-71
2023/09/02 06:59:36;;;;;;;37.05;24.15;;;;;;;17.23;100.00;101734.91;4963578;28;20644;-72
2023/09/02 07:02:03;;;;;;;36.25;24.17;;;;;;;17.31;100.00;101748.75;4961312;28;20051;-73
2023/09/02 07:04:32;;;;;;;34.92;23.45;;;;;;;17.33;100.00;101744.22;4963220;28;20601;-73
2023/09/02 07:06:59;;;;;;;44.13;24.38;;;;;;;17.39;100.00;101754.59;4964767;28;20069;-70
2023/09/02 07:09:31;;;;;;;34.72;22.67;;;;;;;17.49;100.00;101760.41;4956447;28;20463;-72
2023/09/02 07:11:58;;;;;;;29.27;20.60;;;;;;;17.62;100.00;101766.03;4975813;28;20050;-72
2023/09/02 07:14:28;;;;;;;31.13;21.58;;;;;;;17.73;100.00;101762.84;4955811;28;20043;-73
2023/09/02 07:16:56;;;;;;;31.27;21.55;;;;;;;17.84;100.00;101778.38;4971404;28;20050;-73
2023/09/02 07:19:24;;;;;;;24.88;19.52;;;;;;;17.92;100.00;101780.66;4967450;28;20039;-73
2023/09/02 07:21:51;;;;;;;28.60;20.52;;;;;;;17.96;100.00;101782.28;4971765;28;20524;-73
2023/09/02 07:24:18;;;;;;;30.15;20.55;;;;;;;17.97;100.00;101792.03;4966906;28;20042;-73
2023/09/02 07:26:45;;;;;;;26.40;20.50;;;;;;;18.00;100.00;101803.44;4953255;28;20113;-73
2023/09/02 07:29:12;;;;;;;25.58;18.50;;;;;;;18.05;100.00;101797.88;4970305;28;20038;-73
2023/09/02 07:31:42;;;;;;;26.23;19.92;;;;;;;18.11;100.00;101799.41;4967576;28;20648;-72
2023/09/02 07:34:10;;;;;;;28.88;20.20;;;;;;;18.18;100.00;101808.84;4955574;28;20315;-71
2023/09/02 07:36:37;;;;;;;24.90;19.38;;;;;;;18.23;100.00;101805.94;4962382;28;20039;-73
2023/09/02 07:39:09;;;;;;;31.20;20.98;;;;;;;18.31;100.00;101807.31;4960566;28;20051;-71
2023/09/02 07:41:41;;;;;;;26.27;20.27;;;;;;;18.49;100.00;101809.19;4965432;28;20039;-73
2023/09/02 07:44:11;;;;;;;26.00;19.95;;;;;;;18.64;100.00;101816.44;4965254;28;20054;-73
2023/09/02 07:46:38;;;;;;;22.40;18.50;;;;;;;18.73;100.00;101826.66;4970182;28;20034;-74
2023/09/02 07:49:11;;;;;;;25.02;18.02;;;;;;;18.74;100.00;101822.22;4967200;28;20065;-74
2023/09/02 07:51:38;;;;;;;27.88;19.75;;;;;;;18.71;100.00;101828.56;4970353;28;20089;-74
2023/09/02 07:54:11;;;;;;;24.95;20.23;;;;;;;18.70;100.00;101824.16;4964852;28;20042;-74
2023/09/02 07:56:38;;;;;;;25.33;19.23;;;;;;;18.69;100.00;101827.78;4964035;28;20042;-74
2023/09/02 07:59:05;;;;;;;24.77;20.35;;;;;;;18.76;100.00;101833.69;4965682;28;20051;-74
2023/09/02 08:01:33;;;;;;;26.58;21.00;;;;;;;18.89;100.00;101833.94;4949876;28;20055;-74
2023/09/02 08:04:01;;;;;;;21.50;17.48;;;;;;;18.97;100.00;101836.25;4971646;28;20043;-74
2023/09/02 08:06:31;;;;;;;26.38;19.65;;;;;;;19.03;100.00;101830.59;4968924;28;20491;-74
2023/09/02 08:08:58;;;;;;;26.35;20.58;;;;;;;19.11;100.00;101846.25;4969080;28;20054;-74
2023/09/02 08:11:30;;;;;;;22.98;19.80;;;;;;;19.19;100.00;101841.38;4968536;28;20080;-74
2023/09/02 08:14:01;;;;;;;29.83;20.38;;;;;;;19.36;100.00;101836.03;4976887;28;20042;-74
2023/09/02 08:16:31;;;;;;;23.30;19.15;;;;;;;19.50;100.00;101839.81;4974786;28;20038;-74
2023/09/02 08:18:59;;;;;;;22.48;17.67;;;;;;;19.57;100.00;101843.03;4993390;28;20771;-75
2023/09/02 08:21:26;;;;;;;21.75;18.50;;;;;;;19.54;100.00;101847.56;4976556;28;20089;-74
2023/09/02 08:23:53;;;;;;;25.58;19.60;;;;;;;19.50;100.00;101843.31;4967114;28;20054;-74
2023/09/02 08:26:20;;;;;;;22.83;18.92;;;;;;;19.46;100.00;101838.22;4970268;28;20097;-74
2023/09/02 08:28:53;;;;;;;22.30;17.77;;;;;;;19.36;100.00;101843.19;4985334;28;20038;-72
2023/09/02 08:31:20;;;;;;;20.88;18.23;;;;;;;19.28;100.00;101848.06;4973305;28;20109;-74
2023/09/02 08:33:55;;;;;;;21.48;18.67;;;;;;;19.21;100.00;101859.06;4966436;28;20043;-74
2023/09/02 08:36:22;;;;;;;23.17;19.55;;;;;;;19.26;100.00;101863.31;4966221;28;20042;-73
2023/09/02 08:38:54;;;;;;;22.15;19.15;;;;;;;19.21;100.00;101861.72;4960617;28;20057;-73
2023/09/02 08:41:29;;;;;;;23.10;19.90;;;;;;;19.12;100.00;101862.19;4985100;28;20557;-73
2023/09/02 08:44:02;;;;;;;22.00;18.77;;;;;;;19.14;100.00;101856.78;4974692;28;20050;-73
2023/09/02 08:46:42;;;;;;;24.45;19.75;;;;;;;19.09;100.00;101862.34;4983379;28;20042;-73
2023/09/02 08:49:09;;;;;;;26.25;19.95;;;;;;;19.02;100.00;101863.59;4971872;28;20647;-73
2023/09/02 08:51:37;;;;;;;22.23;17.73;;;;;;;19.10;100.00;101864.06;4972830;28;20124;-72
2023/09/02 08:54:05;;;;;;;22.38;18.30;;;;;;;19.07;100.00;101865.09;4978020;28;20105;-73
2023/09/02 08:56:42;;;;;;;25.42;19.88;;;;;;;19.02;100.00;101859.16;4967372;28;20116;-73
2023/09/02 08:59:13;;;;;;;24.17;19.17;;;;;;;19.02;100.00;101867.16;4983578;28;20058;-72
2023/09/02 09:01:43;;;;;;;28.83;21.17;;;;;;;19.02;100.00;101866.28;4959654;28;20063;-72
2023/09/02 09:04:15;;;;;;;27.75;20.67;;;;;;;19.01;100.00;101862.75;4978958;28;20050;-72
2023/09/02 09:06:52;;;;;;;28.27;19.40;;;;;;;18.99;100.00;101861.97;4969236;28;20084;-72
2023/09/02 09:09:41;;;;;;;23.83;19.23;;;;;;;19.02;100.00;101858.25;4965361;28;20357;-72
2023/09/02 09:12:12;;;;;;;25.90;19.92;;;;;;;19.04;100.00;101867.91;4982765;28;20043;-72
2023/09/02 09:14:46;;;;;;;23.15;19.30;;;;;;;19.07;100.00;101870.44;4966788;28;20066;-73
2023/09/02 09:17:19;;;;;;;26.00;19.85;;;;;;;19.12;100.00;101866.69;4969297;28;20113;-73
2023/09/02 09:19:53;;;;;;;20.65;17.77;;;;;;;19.08;100.00;101868.63;4972397;28;20124;-72
2023/09/02 09:22:20;;;;;;;22.83;18.45;;;;;;;19.07;100.00;101873.13;4993773;28;20050;-72
2023/09/02 09:24:55;;;;;;;21.75;18.27;;;;;;;19.13;100.00;101869.28;4969606;28;20054;-73
2023/09/02 09:27:34;;;;;;;23.60;19.23;;;;;;;19.10;100.00;101866.75;4991778;28;20388;-73
2023/09/02 09:30:04;;;;;;;22.35;18.27;;;;;;;19.14;100.00;101872.81;4977273;28;21304;-72
2023/09/02 09:32:33;;;;;;;20.17;16.05;;;;;;;19.18;100.00;101879.75;5001350;28;20052;-73
2023/09/02 09:35:23;;;;;;;20.35;17.83;;;;;;;19.28;100.00;101893.53;4989771;28;20047;-73
2023/09/02 09:38:06;;;;;;;18.92;16.48;;;;;;;19.33;100.00;101884.28;4983162;28;20130;-72
2023/09/02 09:40:40;;;;;;;20.45;17.70;;;;;;;19.39;100.00;101891.13;4970428;28;20121;-72
2023/09/02 09:43:27;;;;;;;20.30;16.98;;;;;;;19.37;100.00;101888.56;4967850;28;20241;-72
2023/09/02 09:45:54;;;;;;;21.73;17.38;;;;;;;19.28;100.00;101893.53;4997709;28;20066;-72
2023/09/02 09:48:24;;;;;;;21.50;17.90;;;;;;;19.27;100.00;101899.81;4982056;28;20058;-72
2023/09/02 09:50:55;;;;;;;19.80;17.25;;;;;;;19.26;100.00;101914.97;4992869;28;20046;-72
2023/09/02 09:53:31;;;;;;;19.90;16.67;;;;;;;19.22;100.00;101919.59;4980896;28;20487;-72
2023/09/02 09:56:02;;;;;;;18.02;15.65;;;;;;;19.18;100.00;101931.38;4979184;28;20051;-72
2023/09/02 09:58:32;;;;;;;22.08;17.60;;;;;;;19.18;100.00;101938.53;4980829;28;20050;-71
2023/09/02 10:01:08;;;;;;;20.23;17.73;;;;;;;19.19;100.00;101940.28;4996712;28;20050;-72
2023/09/02 10:03:37;;;;;;;19.95;17.20;;;;;;;19.22;100.00;101945.47;4977813;28;20062;-71
2023/09/02 10:06:07;;;;;;;21.65;18.08;;;;;;;19.22;100.00;101945.47;4991128;28;20085;-72
2023/09/02 10:08:54;;;;;;;22.33;18.20;;;;;;;19.30;100.00;101939.72;4974694;28;20046;-71
2023/09/02 10:11:30;;;;;;;22.73;18.65;;;;;;;19.35;100.00;101951.06;4968015;28;20161;-71
2023/09/02 10:14:00;;;;;;;23.25;19.67;;;;;;;19.40;100.00;101941.00;4986737;28;20053;-71
2023/09/02 10:16:37;;;;;;;21.38;18.55;;;;;;;19.44;100.00;101949.72;4982464;28;20046;-71
2023/09/02 10:19:13;;;;;;;23.30;17.95;;;;;;;19.49;100.00;101953.06;4968536;28;20039;-73
2023/09/02 10:21:44;;;;;;;22.27;18.27;;;;;;;19.49;100.00;101953.91;4973854;28;20619;-72
2023/09/02 10:24:24;;;;;;;22.42;19.27;;;;;;;19.46;100.00;101955.88;4976652;28;20047;-72
2023/09/02 10:26:54;;;;;;;22.80;18.13;;;;;;;19.51;100.00;101952.03;4981314;28;20060;-72
2023/09/02 10:29:28;;;;;;;23.23;19.80;;;;;;;19.60;100.00;101950.69;4975672;28;20046;-72
2023/09/02 10:32:06;;;;;;;23.77;19.33;;;;;;;19.66;100.00;101952.19;4979094;28;20093;-72
2023/09/02 10:34:56;;;;;;;22.27;18.75;;;;;;;19.68;100.00;101964.53;4955025;28;20042;-72
2023/09/02 10:37:34;;;;;;;23.25;18.65;;;;;;;19.68;100.00;101966.38;4973319;28;20061;-71
2023/09/02 10:40:09;;;;;;;22.67;18.83;;;;;;;19.65;100.00;101961.16;4963035;28;20053;-72
2023/09/02 10:42:38;;;;;;;22.08;19.27;;;;;;;19.67;100.00;101967.31;4970712;28;20121;-72
2023/09/02 10:45:11;;;;;;;22.17;18.20;;;;;;;19.71;100.00;101968.84;4976024;28;20038;-72
2023/09/02 10:47:45;;;;;;;23.05;19.42;;;;;;;19.74;100.00;101967.88;4977212;28;20034;-76
2023/09/02 10:50:20;;;;;;;21.15;16.42;;;;;;;19.72;100.00;101975.94;4970699;28;20065;-73
2023/09/02 10:53:01;;;;;;;21.58;18.92;;;;;;;19.71;100.00;101985.78;4972250;28;20055;-72
2023/09/02 10:56:02;;;;;;;24.55;18.27;;;;;;;19.76;100.00;101980.22;4979266;28;20057;-72
2023/09/02 10:58:47;;;;;;;24.98;20.05;;;;;;;19.78;100.00;101983.69;4973196;28;20047;-71
2023/09/02 11:01:14;;;;;;;25.80;20.77;;;;;;;19.80;100.00;101986.25;4965834;28;20506;-71
2023/09/02 11:03:52;;;;;;;21.38;18.70;;;;;;;19.85;100.00;101982.44;4988443;28;20089;-71
2023/09/02 11:06:22;;;;;;;21.55;18.42;;;;;;;19.88;100.00;101977.88;4972317;28;20049;-73
2023/09/02 11:08:56;;;;;;;21.50;17.58;;;;;;;19.99;100.00;101986.22;4972988;28;20039;-73
2023/09/02 11:12:09;;;;;;;22.00;17.60;;;;;;;20.08;100.00;101979.50;4999444;28;20050;-72